sensor_id;sensor_type;location;lat;lon;timestamp;P1;durP1;ratioP1;P2;durP2;ratioP2
23078;SDS011;11707;50.830;4.364;2023-03-01T00:00:01;8.25;;;6.28;;
23078;SDS011;11707;50.830;4.364;2023-03-01T00:02:28;8.93;;;6.95;;
23078;SDS011;11707;50.830;4.364;2023-03-01T00:04:54;9.50;;;6.80;;
23078;SDS011;11707;50.830;4.364;2023-03-01T00:07:19;12.10;;;6.97;;
23078;SDS011;11707;50.830;4.364;2023-03-01T00:09:45;8.45;;;6.55;;
23078;SDS011;11707;50.830;4.364;2023-03-01T00:12:11;10.48;;;6.57;;
23078;SDS011;11707;50.830;4.364;2023-03-01T00:14:36;7.95;;;5.95;;
23078;SDS011;11707;50.830;4.364;2023-03-01T00:17:02;10.52;;;6.18;;
23078;SDS011;11707;50.830;4.364;2023-03-01T00:19:28;12.02;;;6.53;;
23078;SDS011;11707;50.830;4.364;2023-03-01T00:21:54;8.15;;;6.30;;
23078;SDS011;11707;50.830;4.364;2023-03-01T00:24:19;7.97;;;6.38;;
23078;SDS011;11707;50.830;4.364;2023-03-01T00:26:45;8.93;;;6.10;;
23078;SDS011;11707;50.830;4.364;2023-03-01T00:29:11;9.25;;;6.28;;
23078;SDS011;11707;50.830;4.364;2023-03-01T00:31:37;10.98;;;6.22;;
23078;SDS011;11707;50.830;4.364;2023-03-01T00:34:04;12.23;;;6.95;;
23078;SDS011;11707;50.830;4.364;2023-03-01T00:36:31;10.77;;;6.85;;
23078;SDS011;11707;50.830;4.364;2023-03-01T00:38:59;9.02;;;6.13;;
23078;SDS011;11707;50.830;4.364;2023-03-01T00:41:25;10.95;;;6.05;;
23078;SDS011;11707;50.830;4.364;2023-03-01T00:43:51;10.95;;;7.05;;
23078;SDS011;11707;50.830;4.364;2023-03-01T00:46:19;8.65;;;6.65;;
23078;SDS011;11707;50.830;4.364;2023-03-01T00:48:48;11.68;;;6.72;;
23078;SDS011;11707;50.830;4.364;2023-03-01T00:51:19;10.52;;;6.97;;
23078;SDS011;11707;50.830;4.364;2023-03-01T00:53:47;7.78;;;5.90;;
23078;SDS011;11707;50.830;4.364;2023-03-01T00:56:17;8.48;;;6.72;;
23078;SDS011;11707;50.830;4.364;2023-03-01T00:58:43;10.43;;;7.05;;
23078;SDS011;11707;50.830;4.364;2023-03-01T01:03:49;7.82;;;5.72;;
23078;SDS011;11707;50.830;4.364;2023-03-01T01:06:17;8.45;;;6.13;;
23078;SDS011;11707;50.830;4.364;2023-03-01T01:08:46;10.82;;;7.05;;
23078;SDS011;11707;50.830;4.364;2023-03-01T01:11:13;8.95;;;6.82;;
23078;SDS011;11707;50.830;4.364;2023-03-01T01:13:39;9.88;;;6.85;;
23078;SDS011;11707;50.830;4.364;2023-03-01T01:16:06;9.70;;;6.75;;
23078;SDS011;11707;50.830;4.364;2023-03-01T01:18:32;10.10;;;6.57;;
23078;SDS011;11707;50.830;4.364;2023-03-01T01:21:03;9.65;;;6.93;;
23078;SDS011;11707;50.830;4.364;2023-03-01T01:23:33;7.88;;;6.13;;
23078;SDS011;11707;50.830;4.364;2023-03-01T01:26:05;9.48;;;6.63;;
23078;SDS011;11707;50.830;4.364;2023-03-01T01:28:39;8.30;;;6.50;;
23078;SDS011;11707;50.830;4.364;2023-03-01T01:31:05;7.70;;;6.00;;
23078;SDS011;11707;50.830;4.364;2023-03-01T01:33:34;9.18;;;6.43;;
23078;SDS011;11707;50.830;4.364;2023-03-01T01:36:00;8.60;;;6.10;;
23078;SDS011;11707;50.830;4.364;2023-03-01T01:38:28;10.68;;;6.70;;
23078;SDS011;11707;50.830;4.364;2023-03-01T01:40:54;10.30;;;6.20;;
23078;SDS011;11707;50.830;4.364;2023-03-01T01:43:26;9.32;;;6.53;;
23078;SDS011;11707;50.830;4.364;2023-03-01T01:51:14;8.63;;;6.25;;
23078;SDS011;11707;50.830;4.364;2023-03-01T01:53:48;8.40;;;6.53;;
23078;SDS011;11707;50.830;4.364;2023-03-01T01:56:19;10.13;;;6.50;;
23078;SDS011;11707;50.830;4.364;2023-03-01T01:58:50;9.32;;;6.72;;
23078;SDS011;11707;50.830;4.364;2023-03-01T02:01:19;9.10;;;6.60;;
23078;SDS011;11707;50.830;4.364;2023-03-01T02:03:45;8.27;;;6.32;;
23078;SDS011;11707;50.830;4.364;2023-03-01T02:06:15;9.88;;;7.15;;
23078;SDS011;11707;50.830;4.364;2023-03-01T02:08:47;15.95;;;6.68;;
23078;SDS011;11707;50.830;4.364;2023-03-01T02:11:15;9.55;;;6.07;;
23078;SDS011;11707;50.830;4.364;2023-03-01T02:13:43;9.63;;;6.93;;
23078;SDS011;11707;50.830;4.364;2023-03-01T02:16:11;10.82;;;7.10;;
23078;SDS011;11707;50.830;4.364;2023-03-01T02:18:39;9.30;;;6.82;;
23078;SDS011;11707;50.830;4.364;2023-03-01T02:23:49;10.57;;;6.65;;
23078;SDS011;11707;50.830;4.364;2023-03-01T02:26:18;9.60;;;6.43;;
23078;SDS011;11707;50.830;4.364;2023-03-01T02:28:49;8.88;;;5.97;;
23078;SDS011;11707;50.830;4.364;2023-03-01T02:31:16;9.40;;;6.30;;
23078;SDS011;11707;50.830;4.364;2023-03-01T02:34:04;8.77;;;6.70;;
23078;SDS011;11707;50.830;4.364;2023-03-01T02:36:35;11.20;;;7.00;;
23078;SDS011;11707;50.830;4.364;2023-03-01T02:39:06;11.23;;;6.45;;
23078;SDS011;11707;50.830;4.364;2023-03-01T02:41:39;12.00;;;7.22;;
23078;SDS011;11707;50.830;4.364;2023-03-01T02:44:08;10.55;;;6.93;;
23078;SDS011;11707;50.830;4.364;2023-03-01T02:46:34;10.68;;;6.85;;
23078;SDS011;11707;50.830;4.364;2023-03-01T02:57:18;10.32;;;7.10;;
23078;SDS011;11707;50.830;4.364;2023-03-01T02:59:44;9.95;;;6.75;;
23078;SDS011;11707;50.830;4.364;2023-03-01T03:02:26;10.27;;;6.68;;
23078;SDS011;11707;50.830;4.364;2023-03-01T03:05:10;9.90;;;6.78;;
23078;SDS011;11707;50.830;4.364;2023-03-01T03:07:42;8.75;;;6.57;;
23078;SDS011;11707;50.830;4.364;2023-03-01T03:10:11;8.55;;;6.30;;
23078;SDS011;11707;50.830;4.364;2023-03-01T03:12:44;9.60;;;7.03;;
23078;SDS011;11707;50.830;4.364;2023-03-01T03:15:14;11.23;;;7.60;;
23078;SDS011;11707;50.830;4.364;2023-03-01T03:17:40;8.43;;;6.50;;
23078;SDS011;11707;50.830;4.364;2023-03-01T03:20:09;10.05;;;6.70;;
23078;SDS011;11707;50.830;4.364;2023-03-01T03:22:40;10.38;;;7.28;;
23078;SDS011;11707;50.830;4.364;2023-03-01T03:25:07;10.48;;;7.18;;
23078;SDS011;11707;50.830;4.364;2023-03-01T03:27:40;10.70;;;7.30;;
23078;SDS011;11707;50.830;4.364;2023-03-01T03:30:08;9.75;;;6.70;;
23078;SDS011;11707;50.830;4.364;2023-03-01T03:32:40;12.15;;;7.93;;
23078;SDS011;11707;50.830;4.364;2023-03-01T03:35:07;12.68;;;7.22;;
23078;SDS011;11707;50.830;4.364;2023-03-01T03:37:38;9.80;;;7.25;;
23078;SDS011;11707;50.830;4.364;2023-03-01T03:40:23;9.00;;;6.85;;
23078;SDS011;11707;50.830;4.364;2023-03-01T03:42:50;12.27;;;7.40;;
23078;SDS011;11707;50.830;4.364;2023-03-01T03:45:16;8.80;;;6.63;;
23078;SDS011;11707;50.830;4.364;2023-03-01T03:47:43;10.23;;;7.85;;
23078;SDS011;11707;50.830;4.364;2023-03-01T03:50:10;10.57;;;6.68;;
23078;SDS011;11707;50.830;4.364;2023-03-01T03:52:41;9.48;;;6.75;;
23078;SDS011;11707;50.830;4.364;2023-03-01T03:55:10;9.73;;;6.95;;
23078;SDS011;11707;50.830;4.364;2023-03-01T03:57:37;8.60;;;6.88;;
23078;SDS011;11707;50.830;4.364;2023-03-01T04:00:05;10.25;;;7.15;;
23078;SDS011;11707;50.830;4.364;2023-03-01T04:02:43;9.65;;;7.03;;
23078;SDS011;11707;50.830;4.364;2023-03-01T04:05:09;10.10;;;7.25;;
23078;SDS011;11707;50.830;4.364;2023-03-01T04:07:39;12.50;;;7.18;;
23078;SDS011;11707;50.830;4.364;2023-03-01T04:10:07;11.88;;;7.30;;
23078;SDS011;11707;50.830;4.364;2023-03-01T04:12:37;12.68;;;7.50;;
23078;SDS011;11707;50.830;4.364;2023-03-01T04:15:03;9.82;;;6.93;;
23078;SDS011;11707;50.830;4.364;2023-03-01T04:17:39;10.20;;;7.15;;
23078;SDS011;11707;50.830;4.364;2023-03-01T04:20:31;11.52;;;7.43;;
23078;SDS011;11707;50.830;4.364;2023-03-01T04:23:03;9.93;;;7.32;;
23078;SDS011;11707;50.830;4.364;2023-03-01T04:25:48;8.55;;;6.38;;
23078;SDS011;11707;50.830;4.364;2023-03-01T04:28:18;11.52;;;6.22;;
23078;SDS011;11707;50.830;4.364;2023-03-01T04:30:46;11.10;;;7.15;;
23078;SDS011;11707;50.830;4.364;2023-03-01T04:33:11;10.15;;;7.55;;
23078;SDS011;11707;50.830;4.364;2023-03-01T04:35:40;9.40;;;7.18;;
23078;SDS011;11707;50.830;4.364;2023-03-01T04:38:08;10.73;;;7.20;;
23078;SDS011;11707;50.830;4.364;2023-03-01T04:40:36;10.80;;;7.18;;
23078;SDS011;11707;50.830;4.364;2023-03-01T04:43:03;10.60;;;7.50;;
23078;SDS011;11707;50.830;4.364;2023-03-01T04:45:29;11.02;;;7.60;;
23078;SDS011;11707;50.830;4.364;2023-03-01T04:47:56;10.43;;;7.57;;
23078;SDS011;11707;50.830;4.364;2023-03-01T04:50:23;10.55;;;7.50;;
23078;SDS011;11707;50.830;4.364;2023-03-01T04:52:50;12.25;;;7.30;;
23078;SDS011;11707;50.830;4.364;2023-03-01T04:55:17;12.00;;;7.32;;
23078;SDS011;11707;50.830;4.364;2023-03-01T04:57:43;13.35;;;7.80;;
23078;SDS011;11707;50.830;4.364;2023-03-01T05:00:10;12.82;;;7.72;;
23078;SDS011;11707;50.830;4.364;2023-03-01T05:02:51;9.52;;;6.95;;
23078;SDS011;11707;50.830;4.364;2023-03-01T05:07:51;12.07;;;7.60;;
23078;SDS011;11707;50.830;4.364;2023-03-01T05:10:21;13.80;;;7.03;;
23078;SDS011;11707;50.830;4.364;2023-03-01T05:12:47;8.65;;;7.07;;
23078;SDS011;11707;50.830;4.364;2023-03-01T05:15:15;10.13;;;7.47;;
23078;SDS011;11707;50.830;4.364;2023-03-01T05:17:41;13.57;;;7.43;;
23078;SDS011;11707;50.830;4.364;2023-03-01T05:20:07;11.48;;;7.88;;
23078;SDS011;11707;50.830;4.364;2023-03-01T05:22:37;12.02;;;7.40;;
23078;SDS011;11707;50.830;4.364;2023-03-01T05:25:03;11.07;;;7.75;;
23078;SDS011;11707;50.830;4.364;2023-03-01T05:27:32;13.07;;;7.82;;
23078;SDS011;11707;50.830;4.364;2023-03-01T05:30:02;10.10;;;6.47;;
23078;SDS011;11707;50.830;4.364;2023-03-01T05:32:38;14.68;;;8.48;;
23078;SDS011;11707;50.830;4.364;2023-03-01T05:35:08;11.70;;;7.28;;
23078;SDS011;11707;50.830;4.364;2023-03-01T05:37:38;14.25;;;8.20;;
23078;SDS011;11707;50.830;4.364;2023-03-01T05:40:08;11.48;;;8.13;;
23078;SDS011;11707;50.830;4.364;2023-03-01T05:42:48;10.98;;;8.10;;
23078;SDS011;11707;50.830;4.364;2023-03-01T05:45:17;10.52;;;7.75;;
23078;SDS011;11707;50.830;4.364;2023-03-01T05:47:44;17.52;;;7.57;;
23078;SDS011;11707;50.830;4.364;2023-03-01T05:50:18;16.83;;;8.18;;
23078;SDS011;11707;50.830;4.364;2023-03-01T05:52:47;12.00;;;7.93;;
23078;SDS011;11707;50.830;4.364;2023-03-01T05:55:19;9.93;;;7.18;;
23078;SDS011;11707;50.830;4.364;2023-03-01T05:57:46;12.38;;;7.47;;
23078;SDS011;11707;50.830;4.364;2023-03-01T06:00:13;11.05;;;7.47;;
23078;SDS011;11707;50.830;4.364;2023-03-01T06:02:40;12.57;;;7.85;;
23078;SDS011;11707;50.830;4.364;2023-03-01T06:05:06;10.13;;;7.57;;
23078;SDS011;11707;50.830;4.364;2023-03-01T06:07:34;12.50;;;7.72;;
23078;SDS011;11707;50.830;4.364;2023-03-01T06:10:00;14.30;;;8.40;;
23078;SDS011;11707;50.830;4.364;2023-03-01T06:12:29;15.77;;;7.95;;
23078;SDS011;11707;50.830;4.364;2023-03-01T06:14:59;11.85;;;8.00;;
23078;SDS011;11707;50.830;4.364;2023-03-01T06:17:29;11.80;;;7.60;;
23078;SDS011;11707;50.830;4.364;2023-03-01T06:19:55;16.13;;;7.63;;
23078;SDS011;11707;50.830;4.364;2023-03-01T06:22:21;11.90;;;7.40;;
23078;SDS011;11707;50.830;4.364;2023-03-01T06:24:47;13.77;;;8.23;;
23078;SDS011;11707;50.830;4.364;2023-03-01T06:27:15;11.27;;;8.05;;
23078;SDS011;11707;50.830;4.364;2023-03-01T06:29:41;15.20;;;7.15;;
23078;SDS011;11707;50.830;4.364;2023-03-01T06:32:07;13.10;;;7.43;;
23078;SDS011;11707;50.830;4.364;2023-03-01T06:34:33;9.95;;;6.93;;
23078;SDS011;11707;50.830;4.364;2023-03-01T06:36:59;18.50;;;8.07;;
23078;SDS011;11707;50.830;4.364;2023-03-01T06:39:30;15.52;;;8.52;;
23078;SDS011;11707;50.830;4.364;2023-03-01T06:41:56;14.32;;;10.75;;
23078;SDS011;11707;50.830;4.364;2023-03-01T06:44:22;13.82;;;7.80;;
23078;SDS011;11707;50.830;4.364;2023-03-01T06:46:47;14.07;;;8.25;;
23078;SDS011;11707;50.830;4.364;2023-03-01T06:49:13;12.05;;;7.65;;
23078;SDS011;11707;50.830;4.364;2023-03-01T06:51:43;15.07;;;8.13;;
23078;SDS011;11707;50.830;4.364;2023-03-01T06:54:09;11.57;;;7.13;;
23078;SDS011;11707;50.830;4.364;2023-03-01T06:56:35;19.20;;;8.07;;
23078;SDS011;11707;50.830;4.364;2023-03-01T06:59:01;15.80;;;8.60;;
23078;SDS011;11707;50.830;4.364;2023-03-01T07:01:30;20.80;;;8.50;;
23078;SDS011;11707;50.830;4.364;2023-03-01T07:03:56;13.35;;;8.45;;
23078;SDS011;11707;50.830;4.364;2023-03-01T07:06:22;12.32;;;7.93;;
23078;SDS011;11707;50.830;4.364;2023-03-01T07:08:51;11.82;;;8.80;;
23078;SDS011;11707;50.830;4.364;2023-03-01T07:11:16;10.13;;;7.45;;
23078;SDS011;11707;50.830;4.364;2023-03-01T07:13:45;14.02;;;8.18;;
23078;SDS011;11707;50.830;4.364;2023-03-01T07:16:11;11.40;;;8.52;;
23078;SDS011;11707;50.830;4.364;2023-03-01T07:18:39;15.50;;;7.50;;
23078;SDS011;11707;50.830;4.364;2023-03-01T07:21:08;15.00;;;9.00;;
23078;SDS011;11707;50.830;4.364;2023-03-01T07:23:37;14.02;;;8.25;;
23078;SDS011;11707;50.830;4.364;2023-03-01T07:26:03;15.93;;;8.50;;
23078;SDS011;11707;50.830;4.364;2023-03-01T07:28:29;13.98;;;7.50;;
23078;SDS011;11707;50.830;4.364;2023-03-01T07:31:03;14.45;;;8.63;;
23078;SDS011;11707;50.830;4.364;2023-03-01T07:33:30;15.90;;;9.63;;
23078;SDS011;11707;50.830;4.364;2023-03-01T07:35:56;11.23;;;7.75;;
23078;SDS011;11707;50.830;4.364;2023-03-01T07:38:26;11.48;;;8.65;;
23078;SDS011;11707;50.830;4.364;2023-03-01T07:40:53;15.93;;;8.63;;
23078;SDS011;11707;50.830;4.364;2023-03-01T07:43:23;15.35;;;10.00;;
23078;SDS011;11707;50.830;4.364;2023-03-01T07:45:48;11.07;;;8.27;;
23078;SDS011;11707;50.830;4.364;2023-03-01T07:48:16;22.55;;;8.55;;
23078;SDS011;11707;50.830;4.364;2023-03-01T07:50:42;15.68;;;7.90;;
23078;SDS011;11707;50.830;4.364;2023-03-01T07:53:08;14.40;;;9.25;;
23078;SDS011;11707;50.830;4.364;2023-03-01T07:55:36;10.73;;;6.82;;
23078;SDS011;11707;50.830;4.364;2023-03-01T07:58:02;12.80;;;7.78;;
23078;SDS011;11707;50.830;4.364;2023-03-01T08:00:30;13.35;;;7.63;;
23078;SDS011;11707;50.830;4.364;2023-03-01T08:02:58;15.60;;;8.30;;
23078;SDS011;11707;50.830;4.364;2023-03-01T08:05:25;11.93;;;8.32;;
23078;SDS011;11707;50.830;4.364;2023-03-01T08:07:54;12.10;;;7.43;;
23078;SDS011;11707;50.830;4.364;2023-03-01T08:10:20;14.68;;;8.23;;
23078;SDS011;11707;50.830;4.364;2023-03-01T08:12:46;14.13;;;8.82;;
23078;SDS011;11707;50.830;4.364;2023-03-01T08:15:11;16.85;;;8.98;;
23078;SDS011;11707;50.830;4.364;2023-03-01T08:17:39;20.55;;;9.38;;
23078;SDS011;11707;50.830;4.364;2023-03-01T08:20:07;15.45;;;9.30;;
23078;SDS011;11707;50.830;4.364;2023-03-01T08:22:37;13.30;;;8.88;;
23078;SDS011;11707;50.830;4.364;2023-03-01T08:25:05;16.30;;;8.82;;
23078;SDS011;11707;50.830;4.364;2023-03-01T08:27:31;12.18;;;8.82;;
23078;SDS011;11707;50.830;4.364;2023-03-01T08:29:57;13.05;;;8.88;;
23078;SDS011;11707;50.830;4.364;2023-03-01T08:32:22;15.20;;;9.98;;
23078;SDS011;11707;50.830;4.364;2023-03-01T08:34:50;15.07;;;8.50;;
23078;SDS011;11707;50.830;4.364;2023-03-01T08:37:16;12.65;;;8.48;;
23078;SDS011;11707;50.830;4.364;2023-03-01T08:39:42;17.60;;;8.82;;
23078;SDS011;11707;50.830;4.364;2023-03-01T08:42:07;13.07;;;8.60;;
23078;SDS011;11707;50.830;4.364;2023-03-01T08:44:36;13.15;;;8.43;;
23078;SDS011;11707;50.830;4.364;2023-03-01T08:47:01;17.25;;;10.13;;
23078;SDS011;11707;50.830;4.364;2023-03-01T08:49:29;15.50;;;9.00;;
23078;SDS011;11707;50.830;4.364;2023-03-01T08:51:55;14.18;;;8.90;;
23078;SDS011;11707;50.830;4.364;2023-03-01T08:54:23;9.63;;;7.95;;
23078;SDS011;11707;50.830;4.364;2023-03-01T08:56:48;13.30;;;8.70;;
23078;SDS011;11707;50.830;4.364;2023-03-01T08:59:15;20.20;;;8.68;;
23078;SDS011;11707;50.830;4.364;2023-03-01T09:01:42;12.55;;;8.07;;
23078;SDS011;11707;50.830;4.364;2023-03-01T09:04:14;14.98;;;9.23;;
23078;SDS011;11707;50.830;4.364;2023-03-01T09:06:40;11.55;;;8.07;;
23078;SDS011;11707;50.830;4.364;2023-03-01T09:09:10;12.18;;;8.77;;
23078;SDS011;11707;50.830;4.364;2023-03-01T09:11:42;12.55;;;8.48;;
23078;SDS011;11707;50.830;4.364;2023-03-01T09:14:14;13.85;;;8.65;;
23078;SDS011;11707;50.830;4.364;2023-03-01T09:16:45;15.15;;;9.75;;
23078;SDS011;11707;50.830;4.364;2023-03-01T09:19:11;15.48;;;9.20;;
23078;SDS011;11707;50.830;4.364;2023-03-01T09:21:37;12.63;;;8.15;;
23078;SDS011;11707;50.830;4.364;2023-03-01T09:24:05;13.10;;;8.13;;
23078;SDS011;11707;50.830;4.364;2023-03-01T09:26:36;14.23;;;9.00;;
23078;SDS011;11707;50.830;4.364;2023-03-01T09:29:04;13.30;;;9.57;;
23078;SDS011;11707;50.830;4.364;2023-03-01T09:31:30;15.15;;;9.43;;
23078;SDS011;11707;50.830;4.364;2023-03-01T09:33:55;13.55;;;8.43;;
23078;SDS011;11707;50.830;4.364;2023-03-01T09:36:22;14.25;;;8.70;;
23078;SDS011;11707;50.830;4.364;2023-03-01T09:38:50;14.32;;;9.73;;
23078;SDS011;11707;50.830;4.364;2023-03-01T09:41:22;17.23;;;9.25;;
23078;SDS011;11707;50.830;4.364;2023-03-01T09:44:01;18.80;;;9.25;;
23078;SDS011;11707;50.830;4.364;2023-03-01T09:46:38;13.32;;;8.73;;
23078;SDS011;11707;50.830;4.364;2023-03-01T09:49:14;16.08;;;9.07;;
23078;SDS011;11707;50.830;4.364;2023-03-01T09:52:29;11.43;;;8.05;;
23078;SDS011;11707;50.830;4.364;2023-03-01T09:54:57;16.58;;;9.15;;
23078;SDS011;11707;50.830;4.364;2023-03-01T09:59:59;16.80;;;9.88;;
23078;SDS011;11707;50.830;4.364;2023-03-01T10:02:48;13.13;;;8.70;;
23078;SDS011;11707;50.830;4.364;2023-03-01T10:05:39;14.40;;;9.05;;
23078;SDS011;11707;50.830;4.364;2023-03-01T10:16:46;17.60;;;9.68;;
23078;SDS011;11707;50.830;4.364;2023-03-01T10:19:38;16.58;;;9.25;;
23078;SDS011;11707;50.830;4.364;2023-03-01T10:24:50;14.88;;;10.48;;
23078;SDS011;11707;50.830;4.364;2023-03-01T10:27:25;17.05;;;10.07;;
23078;SDS011;11707;50.830;4.364;2023-03-01T10:32:31;13.77;;;8.38;;
23078;SDS011;11707;50.830;4.364;2023-03-01T10:34:57;15.48;;;8.57;;
23078;SDS011;11707;50.830;4.364;2023-03-01T10:37:26;13.07;;;8.98;;
23078;SDS011;11707;50.830;4.364;2023-03-01T10:39:55;13.73;;;9.20;;
23078;SDS011;11707;50.830;4.364;2023-03-01T10:43:10;13.20;;;9.25;;
23078;SDS011;11707;50.830;4.364;2023-03-01T10:45:35;13.52;;;9.30;;
23078;SDS011;11707;50.830;4.364;2023-03-01T10:48:25;13.23;;;8.93;;
23078;SDS011;11707;50.830;4.364;2023-03-01T10:55:58;11.80;;;8.10;;
23078;SDS011;11707;50.830;4.364;2023-03-01T10:58:24;12.95;;;9.43;;
23078;SDS011;11707;50.830;4.364;2023-03-01T11:00:53;13.80;;;9.45;;
23078;SDS011;11707;50.830;4.364;2023-03-01T11:03:30;11.45;;;8.15;;
23078;SDS011;11707;50.830;4.364;2023-03-01T11:08:30;10.02;;;7.60;;
23078;SDS011;11707;50.830;4.364;2023-03-01T11:11:12;13.20;;;8.55;;
23078;SDS011;11707;50.830;4.364;2023-03-01T11:18:57;17.08;;;8.30;;
23078;SDS011;11707;50.830;4.364;2023-03-01T11:21:26;13.15;;;9.00;;
23078;SDS011;11707;50.830;4.364;2023-03-01T11:23:55;13.93;;;8.82;;
23078;SDS011;11707;50.830;4.364;2023-03-01T11:26:24;13.18;;;8.10;;
23078;SDS011;11707;50.830;4.364;2023-03-01T11:28:54;14.07;;;8.93;;
23078;SDS011;11707;50.830;4.364;2023-03-01T11:31:23;11.85;;;7.90;;
23078;SDS011;11707;50.830;4.364;2023-03-01T11:33:55;13.52;;;7.85;;
23078;SDS011;11707;50.830;4.364;2023-03-01T11:39:27;12.45;;;7.93;;
23078;SDS011;11707;50.830;4.364;2023-03-01T11:44:53;10.48;;;7.00;;
23078;SDS011;11707;50.830;4.364;2023-03-01T11:52:39;15.45;;;7.60;;
23078;SDS011;11707;50.830;4.364;2023-03-01T11:58:38;12.10;;;8.25;;
23078;SDS011;11707;50.830;4.364;2023-03-01T12:20:30;14.73;;;7.55;;
23078;SDS011;11707;50.830;4.364;2023-03-01T12:45:32;12.48;;;7.15;;
23078;SDS011;11707;50.830;4.364;2023-03-01T12:50:48;11.48;;;7.38;;
23078;SDS011;11707;50.830;4.364;2023-03-01T12:53:22;12.68;;;8.52;;
23078;SDS011;11707;50.830;4.364;2023-03-01T12:55:55;14.13;;;8.05;;
23078;SDS011;11707;50.830;4.364;2023-03-01T13:10:11;10.02;;;7.28;;
23078;SDS011;11707;50.830;4.364;2023-03-01T13:13:00;12.57;;;7.70;;
23078;SDS011;11707;50.830;4.364;2023-03-01T13:15:29;12.70;;;7.45;;
23078;SDS011;11707;50.830;4.364;2023-03-01T13:18:04;13.43;;;7.50;;
23078;SDS011;11707;50.830;4.364;2023-03-01T13:23:09;11.93;;;8.20;;
23078;SDS011;11707;50.830;4.364;2023-03-01T13:46:48;19.23;;;8.60;;
23078;SDS011;11707;50.830;4.364;2023-03-01T13:49:21;14.13;;;7.90;;
23078;SDS011;11707;50.830;4.364;2023-03-01T13:51:50;14.40;;;7.70;;
23078;SDS011;11707;50.830;4.364;2023-03-01T13:54:20;11.15;;;7.20;;
23078;SDS011;11707;50.830;4.364;2023-03-01T13:56:58;13.10;;;6.90;;
23078;SDS011;11707;50.830;4.364;2023-03-01T13:59:25;10.43;;;6.53;;
23078;SDS011;11707;50.830;4.364;2023-03-01T14:01:55;14.50;;;7.15;;
23078;SDS011;11707;50.830;4.364;2023-03-01T14:04:24;10.70;;;6.90;;
23078;SDS011;11707;50.830;4.364;2023-03-01T14:10:03;11.82;;;6.97;;
23078;SDS011;11707;50.830;4.364;2023-03-01T14:15:05;9.70;;;7.18;;
23078;SDS011;11707;50.830;4.364;2023-03-01T14:20:38;11.45;;;6.88;;
23078;SDS011;11707;50.830;4.364;2023-03-01T14:23:15;20.83;;;8.15;;
23078;SDS011;11707;50.830;4.364;2023-03-01T14:28:24;11.25;;;7.20;;
23078;SDS011;11707;50.830;4.364;2023-03-01T14:31:02;14.50;;;7.07;;
23078;SDS011;11707;50.830;4.364;2023-03-01T14:33:54;12.35;;;7.40;;
23078;SDS011;11707;50.830;4.364;2023-03-01T14:36:25;11.25;;;6.28;;
23078;SDS011;11707;50.830;4.364;2023-03-01T14:38:51;9.45;;;6.90;;
23078;SDS011;11707;50.830;4.364;2023-03-01T14:41:20;10.95;;;6.88;;
23078;SDS011;11707;50.830;4.364;2023-03-01T14:43:52;8.77;;;7.20;;
23078;SDS011;11707;50.830;4.364;2023-03-01T14:46:33;11.88;;;7.35;;
23078;SDS011;11707;50.830;4.364;2023-03-01T14:49:10;12.20;;;7.55;;
23078;SDS011;11707;50.830;4.364;2023-03-01T14:55:12;12.98;;;10.13;;
23078;SDS011;11707;50.830;4.364;2023-03-01T14:57:43;12.10;;;8.15;;
23078;SDS011;11707;50.830;4.364;2023-03-01T15:00:15;11.68;;;7.72;;
23078;SDS011;11707;50.830;4.364;2023-03-01T15:02:42;11.77;;;7.45;;
23078;SDS011;11707;50.830;4.364;2023-03-01T15:05:08;12.02;;;7.80;;
23078;SDS011;11707;50.830;4.364;2023-03-01T15:07:36;12.02;;;8.30;;
23078;SDS011;11707;50.830;4.364;2023-03-01T15:10:05;11.88;;;8.05;;
23078;SDS011;11707;50.830;4.364;2023-03-01T15:12:39;12.02;;;7.65;;
23078;SDS011;11707;50.830;4.364;2023-03-01T15:17:48;11.85;;;7.18;;
23078;SDS011;11707;50.830;4.364;2023-03-01T15:20:23;10.43;;;7.82;;
23078;SDS011;11707;50.830;4.364;2023-03-01T15:22:55;11.57;;;7.55;;
23078;SDS011;11707;50.830;4.364;2023-03-01T15:25:23;12.00;;;7.68;;
23078;SDS011;11707;50.830;4.364;2023-03-01T15:27:51;12.10;;;8.02;;
23078;SDS011;11707;50.830;4.364;2023-03-01T15:30:26;14.00;;;7.97;;
23078;SDS011;11707;50.830;4.364;2023-03-01T15:35:52;11.48;;;8.23;;
23078;SDS011;11707;50.830;4.364;2023-03-01T15:43:56;11.68;;;7.40;;
23078;SDS011;11707;50.830;4.364;2023-03-01T15:46:27;13.35;;;8.15;;
23078;SDS011;11707;50.830;4.364;2023-03-01T15:48:55;16.23;;;9.65;;
23078;SDS011;11707;50.830;4.364;2023-03-01T15:51:27;15.75;;;8.65;;
23078;SDS011;11707;50.830;4.364;2023-03-01T15:54:14;12.07;;;8.07;;
23078;SDS011;11707;50.830;4.364;2023-03-01T15:56:46;10.93;;;8.07;;
23078;SDS011;11707;50.830;4.364;2023-03-01T15:59:14;14.02;;;7.47;;
23078;SDS011;11707;50.830;4.364;2023-03-01T16:01:42;11.43;;;7.82;;
23078;SDS011;11707;50.830;4.364;2023-03-01T16:04:12;13.50;;;8.35;;
23078;SDS011;11707;50.830;4.364;2023-03-01T16:06:45;15.35;;;7.82;;
23078;SDS011;11707;50.830;4.364;2023-03-01T16:09:12;10.45;;;7.47;;
23078;SDS011;11707;50.830;4.364;2023-03-01T16:11:37;9.65;;;7.00;;
23078;SDS011;11707;50.830;4.364;2023-03-01T16:14:05;13.10;;;7.63;;
23078;SDS011;11707;50.830;4.364;2023-03-01T16:16:31;10.00;;;5.95;;
23078;SDS011;11707;50.830;4.364;2023-03-01T16:18:57;10.60;;;7.15;;
23078;SDS011;11707;50.830;4.364;2023-03-01T16:21:23;9.93;;;7.15;;
23078;SDS011;11707;50.830;4.364;2023-03-01T16:23:52;12.20;;;6.70;;
23078;SDS011;11707;50.830;4.364;2023-03-01T16:26:18;10.55;;;7.00;;
23078;SDS011;11707;50.830;4.364;2023-03-01T16:28:44;11.20;;;7.63;;
23078;SDS011;11707;50.830;4.364;2023-03-01T16:31:11;19.67;;;8.23;;
23078;SDS011;11707;50.830;4.364;2023-03-01T16:33:39;10.23;;;6.97;;
23078;SDS011;11707;50.830;4.364;2023-03-01T16:36:08;11.68;;;7.18;;
23078;SDS011;11707;50.830;4.364;2023-03-01T16:38:35;10.05;;;7.80;;
23078;SDS011;11707;50.830;4.364;2023-03-01T16:41:01;10.80;;;7.22;;
23078;SDS011;11707;50.830;4.364;2023-03-01T16:43:27;13.20;;;7.78;;
23078;SDS011;11707;50.830;4.364;2023-03-01T16:45:54;9.82;;;6.80;;
23078;SDS011;11707;50.830;4.364;2023-03-01T16:48:22;9.32;;;7.00;;
23078;SDS011;11707;50.830;4.364;2023-03-01T16:50:58;9.07;;;6.93;;
23078;SDS011;11707;50.830;4.364;2023-03-01T16:53:25;9.30;;;6.78;;
23078;SDS011;11707;50.830;4.364;2023-03-01T16:55:57;15.23;;;7.13;;
23078;SDS011;11707;50.830;4.364;2023-03-01T16:58:24;11.35;;;6.88;;
23078;SDS011;11707;50.830;4.364;2023-03-01T17:00:53;13.45;;;8.10;;
23078;SDS011;11707;50.830;4.364;2023-03-01T17:03:21;12.40;;;7.88;;
23078;SDS011;11707;50.830;4.364;2023-03-01T17:05:51;12.73;;;7.93;;
23078;SDS011;11707;50.830;4.364;2023-03-01T17:08:17;9.88;;;7.25;;
23078;SDS011;11707;50.830;4.364;2023-03-01T17:10:43;8.93;;;6.53;;
23078;SDS011;11707;50.830;4.364;2023-03-01T17:13:09;21.05;;;9.02;;
23078;SDS011;11707;50.830;4.364;2023-03-01T17:15:37;14.23;;;7.82;;
23078;SDS011;11707;50.830;4.364;2023-03-01T17:18:05;12.05;;;7.80;;
23078;SDS011;11707;50.830;4.364;2023-03-01T17:20:32;13.25;;;7.75;;
23078;SDS011;11707;50.830;4.364;2023-03-01T17:22:58;14.50;;;7.93;;
23078;SDS011;11707;50.830;4.364;2023-03-01T17:25:25;17.55;;;7.60;;
23078;SDS011;11707;50.830;4.364;2023-03-01T17:27:52;12.25;;;7.60;;
23078;SDS011;11707;50.830;4.364;2023-03-01T17:30:17;17.73;;;7.65;;
23078;SDS011;11707;50.830;4.364;2023-03-01T17:32:43;12.50;;;7.40;;
23078;SDS011;11707;50.830;4.364;2023-03-01T17:35:09;11.82;;;7.45;;
23078;SDS011;11707;50.830;4.364;2023-03-01T17:37:38;17.08;;;7.25;;
23078;SDS011;11707;50.830;4.364;2023-03-01T17:40:05;10.07;;;6.90;;